createdAt,value
2018-07-20T04:31:16.523Z,9.30
2018-07-20T04:33:44.707Z,8.80
2018-07-20T04:36:12.932Z,8.70
2018-07-20T04:38:41.142Z,8.77
2018-07-20T04:41:09.360Z,9.10
2018-07-20T04:43:37.549Z,8.30
2018-07-20T04:46:05.760Z,8.63
2018-07-20T04:48:33.927Z,9.17
2018-07-20T04:51:02.133Z,8.50
2018-07-20T04:53:30.345Z,9.20
2018-07-20T04:55:58.544Z,8.60
2018-07-20T04:58:28.757Z,8.90
2018-07-20T05:00:57.043Z,9.30
2018-07-20T05:03:25.890Z,8.47
2018-07-20T05:05:54.367Z,9.67
2018-07-20T05:08:22.792Z,8.97
2018-07-20T05:10:51.048Z,10.03
2018-07-20T05:13:19.280Z,8.33
2018-07-20T05:15:47.460Z,9.50
2018-07-20T05:18:15.659Z,9.23
2018-07-20T05:20:43.871Z,9.30
2018-07-20T05:23:12.089Z,8.30
2018-07-20T05:25:40.258Z,9.17
2018-07-20T05:28:08.425Z,8.20
2018-07-20T05:30:36.613Z,8.10
2018-07-20T05:33:16.152Z,7.90
2018-07-20T05:35:44.713Z,8.10
2018-07-20T05:38:12.931Z,8.70
2018-07-20T05:40:41.116Z,8.50
2018-07-20T05:43:09.318Z,8.00
2018-07-20T05:45:37.540Z,8.27
2018-07-20T05:48:05.810Z,7.80
2018-07-20T05:50:34.028Z,8.13
2018-07-20T05:53:02.254Z,7.90
2018-07-20T05:55:30.484Z,8.43
2018-07-20T05:57:58.803Z,9.30
2018-07-20T06:00:27.000Z,8.90
2018-07-20T06:02:55.224Z,7.80
2018-07-20T06:05:23.401Z,7.70
2018-07-20T06:07:51.603Z,7.80
2018-07-20T06:10:19.811Z,8.07
2018-07-20T06:12:48.016Z,7.93
2018-07-20T06:15:16.189Z,8.33
2018-07-20T06:17:44.386Z,7.50
2018-07-20T06:20:12.940Z,8.93
2018-07-20T06:22:41.164Z,8.50
2018-07-20T06:25:10.343Z,7.90
2018-07-20T06:27:38.525Z,7.47
2018-07-20T06:30:07.329Z,7.80
2018-07-20T06:32:35.728Z,9.17
2018-07-20T06:35:04.036Z,7.90
2018-07-20T06:37:32.688Z,7.60
2018-07-20T06:40:00.884Z,8.47
2018-07-20T06:42:29.087Z,7.90
2018-07-20T06:44:57.311Z,7.60
2018-07-20T06:47:25.689Z,8.50
2018-07-20T06:49:53.955Z,7.20
2018-07-20T06:52:22.144Z,7.87
2018-07-20T06:54:50.299Z,7.67
2018-07-20T06:57:18.492Z,8.27
2018-07-20T06:59:46.676Z,7.60
2018-07-20T07:02:14.895Z,8.33
2018-07-20T07:04:43.072Z,7.83
2018-07-20T07:07:11.285Z,7.60
2018-07-20T07:09:39.491Z,7.50
2018-07-20T07:12:07.697Z,7.77
2018-07-20T07:14:35.891Z,7.80
2018-07-20T07:17:04.112Z,8.00
2018-07-20T07:19:32.300Z,7.67
2018-07-20T07:22:00.516Z,8.93
2018-07-20T07:24:28.730Z,7.93
2018-07-20T07:26:56.912Z,7.40
2018-07-20T07:29:25.949Z,7.30
2018-07-20T07:31:54.127Z,7.93
2018-07-20T07:34:22.554Z,7.43
2018-07-20T07:36:50.767Z,7.90
2018-07-20T07:39:18.986Z,7.67
2018-07-20T07:41:47.207Z,6.67
2018-07-20T07:44:15.392Z,7.70
2018-07-20T07:46:44.067Z,8.10
2018-07-20T07:49:12.375Z,7.50
2018-07-20T07:51:40.600Z,7.50
2018-07-20T07:54:08.785Z,7.40
2018-07-20T07:56:37.105Z,7.97
2018-07-20T07:59:05.472Z,7.77
2018-07-20T08:01:50.203Z,8.00
2018-07-20T08:04:18.713Z,7.37
2018-07-20T08:06:47.785Z,7.30
2018-07-20T08:09:16.214Z,7.50
2018-07-20T08:11:45.419Z,7.00
2018-07-20T08:14:13.888Z,6.67
2018-07-20T08:16:42.166Z,6.27
2018-07-20T08:19:10.392Z,5.70
2018-07-20T08:21:39.084Z,6.47
2018-07-20T08:24:07.758Z,6.43
2018-07-20T08:26:36.179Z,5.80
2018-07-20T08:29:04.719Z,6.63
2018-07-20T08:31:33.697Z,6.00
2018-07-20T08:34:02.764Z,5.73
2018-07-20T08:36:31.993Z,5.20
2018-07-20T08:39:00.589Z,6.00
2018-07-20T08:41:28.945Z,5.40
2018-07-20T08:43:57.297Z,5.27
2018-07-20T08:46:25.753Z,5.50
2018-07-20T08:48:54.867Z,5.60
2018-07-20T08:51:23.332Z,5.10
2018-07-20T08:53:51.648Z,5.40
2018-07-20T08:56:19.992Z,4.93
2018-07-20T09:07:14.825Z,5.97
2018-07-20T09:09:43.185Z,5.70
2018-07-20T09:12:11.478Z,5.70
2018-07-20T09:14:40.555Z,6.07
2018-07-20T09:17:09.165Z,5.97
2018-07-20T09:19:38.605Z,5.80
2018-07-20T09:22:06.994Z,5.87
2018-07-20T09:24:35.525Z,5.50
2018-07-20T09:27:03.796Z,5.50
2018-07-20T09:29:32.013Z,5.23
2018-07-20T09:32:00.382Z,5.77
2018-07-20T09:34:28.749Z,5.50
2018-07-20T09:36:57.095Z,5.87
2018-07-20T09:39:26.038Z,5.27
2018-07-20T09:41:54.449Z,5.20
2018-07-20T09:44:23.036Z,5.50
2018-07-20T09:46:53.475Z,5.60
2018-07-20T09:49:22.557Z,4.70
2018-07-20T09:51:51.023Z,5.70
2018-07-20T09:54:19.734Z,6.03
2018-07-20T09:56:48.644Z,5.57
2018-07-20T09:59:18.178Z,5.83
2018-07-20T10:01:46.693Z,5.80
2018-07-20T10:04:14.990Z,5.10
2018-07-20T10:06:43.661Z,5.20
2018-07-20T10:09:13.269Z,5.30
2018-07-20T10:11:42.025Z,5.57
2018-07-20T10:14:10.322Z,5.90
2018-07-20T10:16:38.641Z,4.87
2018-07-20T10:19:07.245Z,5.10
2018-07-20T10:21:36.171Z,6.20
2018-07-20T10:24:04.626Z,6.00
2018-07-20T10:26:33.178Z,6.10
2018-07-20T10:29:01.751Z,5.50
2018-07-20T10:31:30.252Z,7.07
2018-07-20T10:33:58.691Z,5.93
2018-07-20T10:36:27.958Z,6.00
2018-07-20T10:38:57.605Z,6.67
2018-07-20T10:41:26.797Z,5.73
2018-07-20T10:43:55.832Z,6.23
2018-07-20T10:46:24.249Z,6.30
2018-07-20T10:48:52.683Z,6.00
2018-07-20T10:51:20.978Z,5.40
2018-07-20T10:53:49.495Z,5.60
2018-07-20T10:56:17.900Z,5.77
2018-07-20T10:58:46.369Z,5.37
2018-07-20T11:01:14.812Z,6.03
2018-07-20T11:03:43.520Z,5.43
2018-07-20T11:06:12.077Z,6.07
2018-07-20T11:08:41.254Z,6.07
2018-07-20T11:11:09.922Z,5.10
2018-07-20T11:13:38.396Z,5.83
2018-07-20T11:16:06.678Z,6.50
2018-07-20T11:18:36.381Z,6.13
2018-07-20T11:21:05.782Z,5.90
2018-07-20T11:23:34.703Z,5.80
2018-07-20T11:26:02.932Z,5.90
2018-07-20T11:28:31.499Z,5.80
2018-07-20T11:30:59.784Z,6.13
2018-07-20T11:33:27.976Z,5.53
2018-07-20T11:35:56.172Z,5.23
2018-07-20T11:38:24.344Z,5.60
2018-07-20T11:40:52.544Z,6.33
2018-07-20T11:43:20.730Z,6.10
2018-07-20T11:45:48.912Z,5.80
2018-07-20T11:48:17.092Z,5.90
2018-07-20T11:50:45.310Z,6.57
2018-07-20T11:53:13.504Z,5.70
2018-07-20T11:55:41.724Z,6.00
2018-07-20T11:58:09.908Z,5.47
2018-07-20T12:00:38.076Z,6.17
2018-07-20T12:03:06.288Z,5.37
2018-07-20T12:05:34.530Z,5.77
2018-07-20T12:08:02.665Z,5.70
2018-07-20T12:10:30.905Z,5.80
2018-07-20T12:12:59.092Z,6.00
2018-07-20T12:15:27.291Z,7.17
2018-07-20T12:17:55.476Z,6.30
2018-07-20T12:20:23.658Z,5.43
2018-07-20T12:22:51.855Z,6.00
2018-07-20T12:25:20.074Z,6.30
2018-07-20T12:27:48.279Z,5.83
2018-07-20T12:30:16.502Z,5.80
2018-07-20T12:32:44.749Z,6.70
2018-07-20T12:35:12.924Z,5.77
2018-07-20T12:37:41.121Z,5.90
2018-07-20T12:40:09.310Z,6.13
2018-07-20T12:42:37.564Z,5.90
2018-07-20T12:45:05.744Z,6.63
2018-07-20T12:47:34.274Z,6.23
2018-07-20T12:50:02.506Z,7.00
2018-07-20T12:52:30.723Z,6.73
2018-07-20T12:54:58.923Z,5.43
2018-07-20T12:57:27.108Z,6.20
2018-07-20T12:59:55.293Z,6.20
2018-07-20T13:02:23.519Z,6.70
2018-07-20T13:04:51.698Z,6.60
2018-07-20T13:07:19.895Z,5.67
2018-07-20T13:09:48.095Z,6.37
2018-07-20T13:12:16.317Z,6.40
2018-07-20T13:14:44.472Z,5.90
2018-07-20T13:17:12.676Z,6.20
2018-07-20T13:19:40.844Z,6.53
2018-07-20T13:22:09.048Z,6.73
2018-07-20T13:24:37.245Z,5.90
2018-07-20T13:27:05.468Z,6.80
2018-07-20T13:29:33.663Z,6.20
2018-07-20T13:32:01.881Z,7.30
2018-07-20T13:34:30.069Z,6.40
2018-07-20T13:36:58.241Z,6.30
2018-07-20T13:39:26.442Z,6.40
2018-07-20T13:41:54.648Z,6.20
2018-07-20T13:44:22.862Z,6.50
2018-07-20T13:46:51.062Z,5.50
2018-07-20T13:49:19.250Z,6.27
2018-07-20T13:51:47.453Z,6.63
2018-07-20T13:54:15.669Z,6.30
2018-07-20T13:56:43.889Z,6.37
2018-07-20T13:59:12.035Z,6.10
2018-07-20T14:01:40.244Z,5.63
2018-07-20T14:04:08.441Z,6.37
2018-07-20T14:06:36.640Z,6.17
2018-07-20T14:09:06.187Z,5.60
2018-07-20T14:11:34.413Z,6.40
2018-07-20T14:14:02.610Z,6.27
2018-07-20T14:16:30.761Z,6.33
2018-07-20T14:18:58.931Z,7.47
2018-07-20T14:21:27.130Z,6.23
2018-07-20T14:23:55.371Z,6.77
2018-07-20T14:26:23.612Z,6.33
2018-07-20T14:28:51.832Z,6.40
2018-07-20T14:31:20.071Z,5.90
2018-07-20T14:33:48.281Z,6.50
2018-07-20T14:36:16.454Z,6.37
2018-07-20T14:38:44.629Z,6.10
2018-07-20T14:41:12.847Z,6.70
2018-07-20T14:43:41.044Z,6.07
2018-07-20T14:46:09.239Z,6.40
2018-07-20T14:48:37.448Z,6.43
2018-07-20T14:51:05.699Z,6.53
2018-07-20T14:53:33.920Z,6.27
2018-07-20T14:56:02.109Z,6.37
2018-07-20T14:58:30.291Z,6.03
2018-07-20T15:00:58.444Z,6.50
2018-07-20T15:03:26.632Z,5.87
2018-07-20T15:05:54.804Z,9.70
2018-07-20T15:08:23.004Z,7.87
2018-07-20T15:10:51.175Z,7.50
2018-07-20T15:13:19.367Z,7.33
2018-07-20T15:15:47.548Z,7.87
2018-07-20T15:18:15.725Z,6.83
2018-07-20T15:20:43.944Z,6.33
2018-07-20T15:23:12.415Z,6.30
2018-07-20T15:25:40.577Z,6.47
2018-07-20T15:28:08.839Z,6.80
2018-07-20T15:30:37.038Z,6.83
2018-07-20T15:33:05.229Z,6.93
2018-07-20T15:35:33.459Z,6.10
2018-07-20T15:38:01.702Z,6.80
2018-07-20T15:40:29.873Z,7.00
2018-07-20T15:42:58.064Z,6.87
2018-07-20T15:45:26.240Z,6.40
2018-07-20T15:47:54.487Z,6.57
2018-07-20T15:50:22.689Z,7.20
2018-07-20T15:53:36.278Z,7.40
2018-07-20T15:55:19.121Z,7.10
2018-07-20T15:57:47.300Z,6.33
2018-07-20T16:00:15.601Z,6.17
2018-07-20T16:02:43.770Z,7.07
2018-07-20T16:05:11.984Z,7.03
2018-07-20T16:07:40.144Z,6.73
2018-07-20T16:10:08.344Z,6.87
2018-07-20T16:12:36.552Z,7.40
2018-07-20T16:15:05.161Z,6.20
2018-07-20T16:17:33.400Z,6.60
2018-07-20T16:20:01.605Z,7.17
2018-07-20T16:22:29.768Z,7.50
2018-07-20T16:24:57.921Z,7.80
2018-07-20T16:27:26.092Z,7.23
2018-07-20T16:29:54.285Z,7.03
2018-07-20T16:32:22.508Z,7.27
2018-07-20T16:34:50.700Z,7.83
2018-07-20T16:37:18.873Z,6.60
2018-07-20T16:39:47.100Z,6.60
2018-07-20T16:42:15.330Z,7.00
2018-07-20T16:44:43.528Z,6.43
2018-07-20T16:47:11.718Z,7.53
2018-07-20T16:49:40.112Z,7.70
2018-07-20T16:52:08.306Z,7.60
2018-07-20T16:54:36.493Z,7.13
2018-07-20T16:57:04.651Z,7.33
2018-07-20T16:59:33.097Z,7.20
2018-07-20T17:02:01.272Z,6.90
2018-07-20T17:04:29.460Z,7.23
2018-07-20T17:06:57.672Z,6.40
2018-07-20T17:09:25.807Z,6.77
2018-07-20T17:11:54.023Z,6.77
2018-07-20T17:14:22.207Z,7.47
2018-07-20T17:16:50.431Z,7.20
2018-07-20T17:19:18.710Z,7.20
2018-07-20T17:21:46.889Z,7.43
2018-07-20T17:24:15.075Z,6.80
2018-07-20T17:26:43.259Z,7.80
2018-07-20T17:29:11.420Z,8.20
2018-07-20T17:31:39.738Z,8.43
2018-07-20T17:34:07.950Z,8.40
2018-07-20T17:36:36.143Z,7.37
2018-07-20T17:39:06.165Z,7.97
2018-07-20T17:41:34.371Z,8.63
2018-07-20T17:44:02.564Z,7.27
2018-07-20T17:46:30.757Z,7.57
2018-07-20T17:48:58.932Z,8.50
2018-07-20T17:51:27.131Z,7.20
2018-07-20T17:53:55.299Z,6.70
2018-07-20T17:56:23.522Z,6.87
2018-07-20T17:58:51.707Z,7.30
2018-07-20T18:01:19.872Z,7.57
2018-07-20T18:03:48.070Z,6.70
2018-07-20T18:06:16.240Z,6.90
2018-07-20T18:08:44.436Z,7.10
2018-07-20T18:11:12.660Z,7.83
2018-07-20T18:13:40.835Z,7.43
2018-07-20T18:16:09.068Z,7.57
2018-07-20T18:18:37.273Z,7.43
2018-07-20T18:21:05.472Z,6.90
2018-07-20T18:23:33.656Z,6.80
2018-07-20T18:26:01.824Z,8.13
2018-07-20T18:28:30.007Z,7.13
2018-07-20T18:39:27.664Z,7.20
2018-07-20T18:41:55.888Z,7.17
2018-07-20T18:44:24.072Z,7.23
2018-07-20T18:46:52.268Z,7.40
2018-07-20T18:49:20.464Z,7.30
2018-07-20T18:51:48.679Z,7.30
2018-07-20T18:54:16.868Z,7.40
2018-07-20T18:56:45.066Z,7.77
2018-07-20T18:59:13.252Z,7.40
2018-07-20T19:01:41.429Z,7.10
2018-07-20T19:04:09.619Z,7.60
2018-07-20T19:06:37.848Z,7.30
2018-07-20T19:09:07.284Z,8.33
2018-07-20T19:11:35.511Z,7.70
2018-07-20T19:14:03.698Z,8.83
2018-07-20T19:16:31.908Z,7.40
2018-07-20T19:19:00.154Z,8.60
2018-07-20T19:21:28.319Z,7.80
2018-07-20T19:23:56.624Z,7.93
2018-07-20T19:26:24.769Z,8.40
2018-07-20T19:28:52.936Z,8.43
2018-07-20T19:31:22.131Z,7.57
2018-07-20T19:33:50.355Z,7.70
2018-07-20T19:36:18.609Z,7.20
2018-07-20T19:38:46.819Z,8.50
2018-07-20T19:41:15.029Z,7.87
2018-07-20T19:43:43.204Z,7.60
2018-07-20T19:46:11.384Z,7.83
2018-07-20T19:48:41.105Z,8.23
2018-07-20T19:51:09.273Z,6.77
2018-07-20T19:53:37.808Z,7.30
2018-07-20T19:56:06.020Z,7.60
2018-07-20T19:58:34.217Z,6.90
2018-07-20T20:01:02.377Z,6.87
2018-07-20T20:03:30.581Z,7.60
2018-07-20T20:05:58.773Z,7.60
2018-07-20T20:08:27.033Z,7.87
2018-07-20T20:10:55.191Z,7.13
2018-07-20T20:13:23.481Z,8.03
2018-07-20T20:15:51.900Z,7.37
2018-07-20T20:18:35.650Z,7.60
2018-07-20T20:21:03.947Z,8.10
2018-07-20T20:23:32.156Z,8.40
2018-07-20T20:26:00.501Z,8.20
2018-07-20T20:31:18.825Z,8.53
2018-07-20T20:33:47.051Z,7.77
2018-07-20T20:36:15.284Z,7.80
2018-07-20T20:38:43.487Z,7.90
2018-07-20T20:41:11.880Z,9.00
2018-07-20T20:43:40.237Z,7.77
2018-07-20T20:46:08.541Z,7.80
2018-07-20T20:48:36.798Z,7.60
2018-07-20T20:51:05.045Z,8.30
2018-07-20T20:53:33.527Z,8.33
2018-07-20T20:56:01.749Z,8.87
2018-07-20T20:58:30.167Z,7.80
2018-07-20T21:00:58.522Z,7.33
2018-07-20T21:03:33.070Z,8.40
2018-07-20T21:06:02.249Z,8.50
2018-07-20T21:08:30.494Z,7.80
2018-07-20T21:10:58.783Z,8.37
2018-07-20T21:13:27.098Z,7.57
2018-07-20T21:15:55.598Z,8.77
2018-07-20T21:18:23.800Z,8.00
2018-07-20T21:20:51.973Z,8.43
2018-07-20T21:23:26.487Z,8.90
2018-07-20T21:25:54.687Z,8.27
2018-07-20T21:28:22.904Z,8.50
2018-07-20T21:30:51.089Z,9.20
2018-07-20T21:33:19.304Z,7.90
2018-07-20T21:35:47.476Z,8.60
2018-07-20T21:38:15.930Z,9.03
2018-07-20T21:40:44.113Z,10.07
2018-07-20T21:43:12.293Z,9.30
2018-07-20T21:45:40.489Z,10.43
2018-07-20T21:48:08.651Z,9.10
2018-07-20T21:50:36.891Z,10.30
2018-07-20T21:53:05.076Z,8.90
2018-07-20T21:55:33.315Z,9.33
2018-07-20T21:58:01.500Z,9.60
2018-07-20T22:00:29.684Z,8.73
